sensor_id;sensor_type;location;lat;lon;timestamp;temperature;humidity
27978;DHT22;15314;49.248;6.968;2022-12-15T00:01:10;0.90;95.00
27978;DHT22;15314;49.248;6.968;2022-12-15T00:02:30;1.00;95.00
27978;DHT22;15314;49.248;6.968;2022-12-15T00:03:49;0.90;95.00
27978;DHT22;15314;49.248;6.968;2022-12-15T00:05:09;0.90;95.00
27978;DHT22;15314;49.248;6.968;2022-12-15T00:06:30;1.00;95.00
27978;DHT22;15314;49.248;6.968;2022-12-15T00:07:49;0.90;95.30
27978;DHT22;15314;49.248;6.968;2022-12-15T00:09:10;0.90;95.20
27978;DHT22;15314;49.248;6.968;2022-12-15T00:10:29;1.00;94.90
27978;DHT22;15314;49.248;6.968;2022-12-15T00:11:48;0.90;94.70
27978;DHT22;15314;49.248;6.968;2022-12-15T00:13:12;1.00;94.70
27978;DHT22;15314;49.248;6.968;2022-12-15T00:14:31;0.90;94.70
27978;DHT22;15314;49.248;6.968;2022-12-15T00:15:50;1.10;94.80
27978;DHT22;15314;49.248;6.968;2022-12-15T00:17:09;0.90;94.90
27978;DHT22;15314;49.248;6.968;2022-12-15T00:18:28;0.90;94.90
27978;DHT22;15314;49.248;6.968;2022-12-15T00:19:47;0.80;95.10
27978;DHT22;15314;49.248;6.968;2022-12-15T00:21:07;0.70;95.10
27978;DHT22;15314;49.248;6.968;2022-12-15T00:22:28;0.80;95.30
27978;DHT22;15314;49.248;6.968;2022-12-15T00:23:46;0.80;95.20
27978;DHT22;15314;49.248;6.968;2022-12-15T00:25:06;0.90;95.10
27978;DHT22;15314;49.248;6.968;2022-12-15T00:26:25;0.90;95.00
27978;DHT22;15314;49.248;6.968;2022-12-15T00:27:44;0.90;95.00
27978;DHT22;15314;49.248;6.968;2022-12-15T00:29:03;1.00;95.10
27978;DHT22;15314;49.248;6.968;2022-12-15T00:30:22;1.00;94.90
27978;DHT22;15314;49.248;6.968;2022-12-15T00:31:42;1.00;94.70
27978;DHT22;15314;49.248;6.968;2022-12-15T00:33:07;0.90;94.80
27978;DHT22;15314;49.248;6.968;2022-12-15T00:34:27;1.00;94.90
27978;DHT22;15314;49.248;6.968;2022-12-15T00:35:47;0.90;95.00
27978;DHT22;15314;49.248;6.968;2022-12-15T00:37:06;0.90;94.80
27978;DHT22;15314;49.248;6.968;2022-12-15T00:38:25;0.90;94.80
27978;DHT22;15314;49.248;6.968;2022-12-15T00:39:44;0.90;95.00
27978;DHT22;15314;49.248;6.968;2022-12-15T00:40:45;1.00;94.60
27978;DHT22;15314;49.248;6.968;2022-12-15T00:41:45;0.90;94.60
27978;DHT22;15314;49.248;6.968;2022-12-15T00:42:46;0.90;94.50
27978;DHT22;15314;49.248;6.968;2022-12-15T00:43:47;1.00;94.60
27978;DHT22;15314;49.248;6.968;2022-12-15T00:44:48;0.90;94.60
27978;DHT22;15314;49.248;6.968;2022-12-15T00:45:48;0.80;94.90
27978;DHT22;15314;49.248;6.968;2022-12-15T00:47:08;0.80;94.90
27978;DHT22;15314;49.248;6.968;2022-12-15T00:48:08;0.90;94.80
27978;DHT22;15314;49.248;6.968;2022-12-15T00:49:09;1.00;94.70
27978;DHT22;15314;49.248;6.968;2022-12-15T00:50:29;0.90;94.60
27978;DHT22;15314;49.248;6.968;2022-12-15T00:51:48;1.00;94.70
27978;DHT22;15314;49.248;6.968;2022-12-15T00:53:08;1.00;94.80
27978;DHT22;15314;49.248;6.968;2022-12-15T00:54:27;0.90;94.80
27978;DHT22;15314;49.248;6.968;2022-12-15T00:55:46;0.90;95.20
27978;DHT22;15314;49.248;6.968;2022-12-15T00:57:06;0.80;95.30
27978;DHT22;15314;49.248;6.968;2022-12-15T00:58:25;0.80;95.30
27978;DHT22;15314;49.248;6.968;2022-12-15T00:59:44;0.80;95.30
27978;DHT22;15314;49.248;6.968;2022-12-15T01:01:07;0.80;95.40
27978;DHT22;15314;49.248;6.968;2022-12-15T01:02:27;0.90;95.40
27978;DHT22;15314;49.248;6.968;2022-12-15T01:03:46;0.80;95.40
27978;DHT22;15314;49.248;6.968;2022-12-15T01:05:06;0.90;95.20
27978;DHT22;15314;49.248;6.968;2022-12-15T01:06:25;0.90;95.20
27978;DHT22;15314;49.248;6.968;2022-12-15T01:07:44;0.90;95.20
27978;DHT22;15314;49.248;6.968;2022-12-15T01:09:05;1.00;95.10
27978;DHT22;15314;49.248;6.968;2022-12-15T01:10:24;1.00;95.00
27978;DHT22;15314;49.248;6.968;2022-12-15T01:11:44;1.00;94.80
27978;DHT22;15314;49.248;6.968;2022-12-15T01:13:04;1.10;94.90
27978;DHT22;15314;49.248;6.968;2022-12-15T01:14:24;1.10;94.80
27978;DHT22;15314;49.248;6.968;2022-12-15T01:15:43;1.10;94.80
27978;DHT22;15314;49.248;6.968;2022-12-15T01:17:03;1.10;94.80
27978;DHT22;15314;49.248;6.968;2022-12-15T01:18:23;1.10;94.80
27978;DHT22;15314;49.248;6.968;2022-12-15T01:19:42;1.10;94.70
27978;DHT22;15314;49.248;6.968;2022-12-15T01:21:03;1.10;94.80
27978;DHT22;15314;49.248;6.968;2022-12-15T01:22:05;1.00;94.90
27978;DHT22;15314;49.248;6.968;2022-12-15T01:23:06;1.00;95.00
27978;DHT22;15314;49.248;6.968;2022-12-15T01:24:07;1.00;95.00
27978;DHT22;15314;49.248;6.968;2022-12-15T01:25:08;1.00;95.00
27978;DHT22;15314;49.248;6.968;2022-12-15T01:26:09;1.00;95.00
27978;DHT22;15314;49.248;6.968;2022-12-15T01:27:10;1.00;95.20
27978;DHT22;15314;49.248;6.968;2022-12-15T01:28:10;1.00;95.10
27978;DHT22;15314;49.248;6.968;2022-12-15T01:29:11;1.00;95.10
27978;DHT22;15314;49.248;6.968;2022-12-15T01:30:16;1.00;95.00
27978;DHT22;15314;49.248;6.968;2022-12-15T01:31:17;1.00;95.10
27978;DHT22;15314;49.248;6.968;2022-12-15T01:32:17;1.00;95.00
27978;DHT22;15314;49.248;6.968;2022-12-15T01:33:19;1.00;95.00
27978;DHT22;15314;49.248;6.968;2022-12-15T01:34:20;1.10;94.90
27978;DHT22;15314;49.248;6.968;2022-12-15T01:35:22;1.10;94.80
27978;DHT22;15314;49.248;6.968;2022-12-15T01:36:22;1.10;94.80
27978;DHT22;15314;49.248;6.968;2022-12-15T01:37:23;1.00;94.90
27978;DHT22;15314;49.248;6.968;2022-12-15T01:38:24;1.00;95.10
27978;DHT22;15314;49.248;6.968;2022-12-15T01:39:25;1.10;95.10
27978;DHT22;15314;49.248;6.968;2022-12-15T01:40:53;1.00;95.00
27978;DHT22;15314;49.248;6.968;2022-12-15T01:41:54;1.00;95.20
27978;DHT22;15314;49.248;6.968;2022-12-15T01:42:55;0.90;95.20
27978;DHT22;15314;49.248;6.968;2022-12-15T01:44:14;0.80;95.10
27978;DHT22;15314;49.248;6.968;2022-12-15T01:46:30;0.90;95.30
27978;DHT22;15314;49.248;6.968;2022-12-15T01:47:31;0.80;95.40
27978;DHT22;15314;49.248;6.968;2022-12-15T01:48:46;0.80;95.60
27978;DHT22;15314;49.248;6.968;2022-12-15T01:49:46;0.80;95.80
27978;DHT22;15314;49.248;6.968;2022-12-15T01:52:01;0.80;95.40
27978;DHT22;15314;49.248;6.968;2022-12-15T01:53:03;0.80;95.30
27978;DHT22;15314;49.248;6.968;2022-12-15T01:54:08;0.90;95.30
27978;DHT22;15314;49.248;6.968;2022-12-15T01:55:10;0.80;95.30
27978;DHT22;15314;49.248;6.968;2022-12-15T01:56:11;0.80;95.40
27978;DHT22;15314;49.248;6.968;2022-12-15T01:57:16;0.80;95.60
27978;DHT22;15314;49.248;6.968;2022-12-15T01:58:18;0.70;95.60
27978;DHT22;15314;49.248;6.968;2022-12-15T01:59:27;0.70;95.60
27978;DHT22;15314;49.248;6.968;2022-12-15T02:00:29;0.60;95.80
27978;DHT22;15314;49.248;6.968;2022-12-15T02:01:30;0.60;96.00
27978;DHT22;15314;49.248;6.968;2022-12-15T02:02:31;0.60;95.90
27978;DHT22;15314;49.248;6.968;2022-12-15T02:03:33;0.60;96.00
27978;DHT22;15314;49.248;6.968;2022-12-15T02:04:34;0.60;96.00
27978;DHT22;15314;49.248;6.968;2022-12-15T02:05:37;0.70;95.80
27978;DHT22;15314;49.248;6.968;2022-12-15T02:06:39;0.70;95.70
27978;DHT22;15314;49.248;6.968;2022-12-15T02:07:39;0.70;95.60
27978;DHT22;15314;49.248;6.968;2022-12-15T02:08:43;0.70;95.60
27978;DHT22;15314;49.248;6.968;2022-12-15T02:09:47;0.80;95.50
27978;DHT22;15314;49.248;6.968;2022-12-15T02:13:57;0.80;95.60
27978;DHT22;15314;49.248;6.968;2022-12-15T02:16:48;0.70;95.90
27978;DHT22;15314;49.248;6.968;2022-12-15T02:20:39;0.70;95.60
27978;DHT22;15314;49.248;6.968;2022-12-15T02:22:02;0.70;95.60
27978;DHT22;15314;49.248;6.968;2022-12-15T02:24:29;0.70;95.50
27978;DHT22;15314;49.248;6.968;2022-12-15T02:25:43;0.70;95.50
27978;DHT22;15314;49.248;6.968;2022-12-15T02:27:10;0.70;95.60
27978;DHT22;15314;49.248;6.968;2022-12-15T02:31:10;0.70;95.40
27978;DHT22;15314;49.248;6.968;2022-12-15T02:34:10;0.80;95.50
27978;DHT22;15314;49.248;6.968;2022-12-15T02:35:25;0.80;95.40
27978;DHT22;15314;49.248;6.968;2022-12-15T02:36:32;0.70;95.60
27978;DHT22;15314;49.248;6.968;2022-12-15T02:37:36;0.70;95.60
27978;DHT22;15314;49.248;6.968;2022-12-15T02:38:38;0.70;95.60
27978;DHT22;15314;49.248;6.968;2022-12-15T02:39:41;0.70;95.50
27978;DHT22;15314;49.248;6.968;2022-12-15T02:40:41;0.70;95.60
27978;DHT22;15314;49.248;6.968;2022-12-15T02:41:44;0.80;95.50
27978;DHT22;15314;49.248;6.968;2022-12-15T02:42:53;0.90;95.50
27978;DHT22;15314;49.248;6.968;2022-12-15T02:43:55;0.80;95.40
27978;DHT22;15314;49.248;6.968;2022-12-15T02:45:13;0.90;95.40
27978;DHT22;15314;49.248;6.968;2022-12-15T02:46:34;0.80;95.40
27978;DHT22;15314;49.248;6.968;2022-12-15T02:48:01;0.90;95.30
27978;DHT22;15314;49.248;6.968;2022-12-15T02:49:46;0.90;95.30
27978;DHT22;15314;49.248;6.968;2022-12-15T02:51:10;0.90;95.40
27978;DHT22;15314;49.248;6.968;2022-12-15T02:53:47;1.00;95.20
27978;DHT22;15314;49.248;6.968;2022-12-15T02:54:57;1.00;95.20
27978;DHT22;15314;49.248;6.968;2022-12-15T02:56:18;1.10;95.20
27978;DHT22;15314;49.248;6.968;2022-12-15T02:57:46;1.10;95.10
27978;DHT22;15314;49.248;6.968;2022-12-15T03:00:15;1.00;94.90
27978;DHT22;15314;49.248;6.968;2022-12-15T03:01:45;1.00;94.90
27978;DHT22;15314;49.248;6.968;2022-12-15T03:02:50;1.00;94.90
27978;DHT22;15314;49.248;6.968;2022-12-15T03:03:52;1.00;94.80
27978;DHT22;15314;49.248;6.968;2022-12-15T03:04:55;0.90;94.80
27978;DHT22;15314;49.248;6.968;2022-12-15T03:05:58;0.90;94.90
27978;DHT22;15314;49.248;6.968;2022-12-15T03:07:04;0.90;95.20
27978;DHT22;15314;49.248;6.968;2022-12-15T03:08:07;0.90;95.20
27978;DHT22;15314;49.248;6.968;2022-12-15T03:09:08;0.70;95.20
27978;DHT22;15314;49.248;6.968;2022-12-15T03:10:11;0.70;95.20
27978;DHT22;15314;49.248;6.968;2022-12-15T03:11:12;0.60;95.40
27978;DHT22;15314;49.248;6.968;2022-12-15T03:12:12;0.50;95.60
27978;DHT22;15314;49.248;6.968;2022-12-15T03:13:13;0.50;95.60
27978;DHT22;15314;49.248;6.968;2022-12-15T03:14:14;0.50;95.50
27978;DHT22;15314;49.248;6.968;2022-12-15T03:15:15;0.50;95.50
27978;DHT22;15314;49.248;6.968;2022-12-15T03:16:16;0.40;95.70
27978;DHT22;15314;49.248;6.968;2022-12-15T03:17:17;0.40;95.60
27978;DHT22;15314;49.248;6.968;2022-12-15T03:18:17;0.30;95.70
27978;DHT22;15314;49.248;6.968;2022-12-15T03:19:18;0.30;95.80
27978;DHT22;15314;49.248;6.968;2022-12-15T03:20:19;0.20;95.90
27978;DHT22;15314;49.248;6.968;2022-12-15T03:21:20;0.10;96.10
27978;DHT22;15314;49.248;6.968;2022-12-15T03:22:20;0.00;96.40
27978;DHT22;15314;49.248;6.968;2022-12-15T03:23:21;-0.10;96.80
27978;DHT22;15314;49.248;6.968;2022-12-15T03:24:22;-0.20;96.90
27978;DHT22;15314;49.248;6.968;2022-12-15T03:25:22;-0.20;96.90
27978;DHT22;15314;49.248;6.968;2022-12-15T03:26:23;-0.30;97.00
27978;DHT22;15314;49.248;6.968;2022-12-15T03:27:24;-0.30;97.30
27978;DHT22;15314;49.248;6.968;2022-12-15T03:28:24;-0.40;97.10
27978;DHT22;15314;49.248;6.968;2022-12-15T03:29:25;-0.40;97.10
27978;DHT22;15314;49.248;6.968;2022-12-15T03:30:26;-0.30;97.00
27978;DHT22;15314;49.248;6.968;2022-12-15T03:31:27;-0.30;96.90
27978;DHT22;15314;49.248;6.968;2022-12-15T03:32:28;-0.30;96.90
27978;DHT22;15314;49.248;6.968;2022-12-15T03:33:29;-0.30;96.80
27978;DHT22;15314;49.248;6.968;2022-12-15T03:34:31;-0.20;96.80
27978;DHT22;15314;49.248;6.968;2022-12-15T03:35:32;-0.10;96.70
27978;DHT22;15314;49.248;6.968;2022-12-15T03:36:33;-0.10;96.60
27978;DHT22;15314;49.248;6.968;2022-12-15T03:37:33;-0.10;96.50
27978;DHT22;15314;49.248;6.968;2022-12-15T03:38:34;0.00;96.50
27978;DHT22;15314;49.248;6.968;2022-12-15T03:39:34;0.00;96.40
27978;DHT22;15314;49.248;6.968;2022-12-15T03:40:35;0.10;96.20
27978;DHT22;15314;49.248;6.968;2022-12-15T03:41:35;0.00;96.20
27978;DHT22;15314;49.248;6.968;2022-12-15T03:42:36;0.10;96.20
27978;DHT22;15314;49.248;6.968;2022-12-15T03:43:49;0.00;96.20
27978;DHT22;15314;49.248;6.968;2022-12-15T03:44:49;0.10;96.40
27978;DHT22;15314;49.248;6.968;2022-12-15T03:45:50;0.10;96.30
27978;DHT22;15314;49.248;6.968;2022-12-15T03:46:51;0.10;96.40
27978;DHT22;15314;49.248;6.968;2022-12-15T03:47:53;0.10;96.50
27978;DHT22;15314;49.248;6.968;2022-12-15T03:48:53;0.10;96.50
27978;DHT22;15314;49.248;6.968;2022-12-15T03:49:54;0.10;96.40
27978;DHT22;15314;49.248;6.968;2022-12-15T03:50:55;0.20;96.30
27978;DHT22;15314;49.248;6.968;2022-12-15T03:51:55;0.20;96.30
27978;DHT22;15314;49.248;6.968;2022-12-15T03:52:58;0.20;96.20
27978;DHT22;15314;49.248;6.968;2022-12-15T03:53:59;0.30;96.20
27978;DHT22;15314;49.248;6.968;2022-12-15T03:54:59;0.20;96.30
27978;DHT22;15314;49.248;6.968;2022-12-15T03:56:00;0.30;96.30
27978;DHT22;15314;49.248;6.968;2022-12-15T03:57:01;0.20;96.10
27978;DHT22;15314;49.248;6.968;2022-12-15T03:58:01;0.20;96.30
27978;DHT22;15314;49.248;6.968;2022-12-15T03:59:02;0.20;96.40
27978;DHT22;15314;49.248;6.968;2022-12-15T04:00:04;0.10;96.40
27978;DHT22;15314;49.248;6.968;2022-12-15T04:01:18;0.20;96.30
27978;DHT22;15314;49.248;6.968;2022-12-15T04:02:22;0.30;96.10
27978;DHT22;15314;49.248;6.968;2022-12-15T04:03:22;0.20;96.00
27978;DHT22;15314;49.248;6.968;2022-12-15T04:04:23;0.20;96.40
27978;DHT22;15314;49.248;6.968;2022-12-15T04:05:31;0.30;96.20
27978;DHT22;15314;49.248;6.968;2022-12-15T04:06:32;0.30;96.10
27978;DHT22;15314;49.248;6.968;2022-12-15T04:07:33;0.30;96.20
27978;DHT22;15314;49.248;6.968;2022-12-15T04:08:34;0.30;96.30
27978;DHT22;15314;49.248;6.968;2022-12-15T04:09:35;0.30;96.30
27978;DHT22;15314;49.248;6.968;2022-12-15T04:10:36;0.20;96.30
27978;DHT22;15314;49.248;6.968;2022-12-15T04:11:37;0.30;96.20
27978;DHT22;15314;49.248;6.968;2022-12-15T04:12:38;0.20;96.30
27978;DHT22;15314;49.248;6.968;2022-12-15T04:13:42;0.20;96.30
27978;DHT22;15314;49.248;6.968;2022-12-15T04:14:43;0.20;96.30
27978;DHT22;15314;49.248;6.968;2022-12-15T04:15:43;0.10;96.40
27978;DHT22;15314;49.248;6.968;2022-12-15T04:16:44;0.20;96.60
27978;DHT22;15314;49.248;6.968;2022-12-15T04:17:44;0.20;96.50
27978;DHT22;15314;49.248;6.968;2022-12-15T04:18:45;0.20;96.50
27978;DHT22;15314;49.248;6.968;2022-12-15T04:19:45;0.30;96.30
27978;DHT22;15314;49.248;6.968;2022-12-15T04:21:04;0.30;96.30
27978;DHT22;15314;49.248;6.968;2022-12-15T04:22:05;0.20;96.30
27978;DHT22;15314;49.248;6.968;2022-12-15T04:23:06;0.20;96.70
27978;DHT22;15314;49.248;6.968;2022-12-15T04:24:07;0.20;96.50
27978;DHT22;15314;49.248;6.968;2022-12-15T04:25:26;0.20;96.50
27978;DHT22;15314;49.248;6.968;2022-12-15T04:26:46;0.20;96.40
27978;DHT22;15314;49.248;6.968;2022-12-15T04:28:06;0.10;96.70
27978;DHT22;15314;49.248;6.968;2022-12-15T04:29:25;0.10;96.70
27978;DHT22;15314;49.248;6.968;2022-12-15T04:30:50;0.10;96.40
27978;DHT22;15314;49.248;6.968;2022-12-15T04:32:10;0.10;96.30
27978;DHT22;15314;49.248;6.968;2022-12-15T04:33:29;0.20;96.30
27978;DHT22;15314;49.248;6.968;2022-12-15T04:34:48;0.20;96.20
27978;DHT22;15314;49.248;6.968;2022-12-15T04:36:09;0.00;96.40
27978;DHT22;15314;49.248;6.968;2022-12-15T04:37:29;0.00;96.80
27978;DHT22;15314;49.248;6.968;2022-12-15T04:38:49;0.00;96.80
27978;DHT22;15314;49.248;6.968;2022-12-15T04:40:08;0.00;96.60
27978;DHT22;15314;49.248;6.968;2022-12-15T04:41:28;0.00;96.70
27978;DHT22;15314;49.248;6.968;2022-12-15T04:42:49;0.00;96.50
27978;DHT22;15314;49.248;6.968;2022-12-15T04:44:09;0.00;96.40
27978;DHT22;15314;49.248;6.968;2022-12-15T04:45:29;0.10;96.30
27978;DHT22;15314;49.248;6.968;2022-12-15T04:46:49;0.10;96.20
27978;DHT22;15314;49.248;6.968;2022-12-15T04:48:08;0.00;96.20
27978;DHT22;15314;49.248;6.968;2022-12-15T04:49:27;0.00;96.40
27978;DHT22;15314;49.248;6.968;2022-12-15T04:50:46;-0.10;96.70
27978;DHT22;15314;49.248;6.968;2022-12-15T04:52:05;-0.10;97.00
27978;DHT22;15314;49.248;6.968;2022-12-15T04:53:25;-0.10;97.00
27978;DHT22;15314;49.248;6.968;2022-12-15T04:54:44;-0.20;97.00
27978;DHT22;15314;49.248;6.968;2022-12-15T04:56:09;-0.20;97.20
27978;DHT22;15314;49.248;6.968;2022-12-15T04:57:29;-0.20;97.10
27978;DHT22;15314;49.248;6.968;2022-12-15T04:58:48;-0.10;97.10
27978;DHT22;15314;49.248;6.968;2022-12-15T05:00:08;-0.10;96.70
27978;DHT22;15314;49.248;6.968;2022-12-15T05:01:27;0.00;96.70
27978;DHT22;15314;49.248;6.968;2022-12-15T05:02:46;0.00;96.50
27978;DHT22;15314;49.248;6.968;2022-12-15T05:04:06;0.00;96.50
27978;DHT22;15314;49.248;6.968;2022-12-15T05:05:25;0.00;96.60
27978;DHT22;15314;49.248;6.968;2022-12-15T05:06:44;0.00;96.60
27978;DHT22;15314;49.248;6.968;2022-12-15T05:08:04;0.00;96.50
27978;DHT22;15314;49.248;6.968;2022-12-15T05:09:23;0.10;96.60
27978;DHT22;15314;49.248;6.968;2022-12-15T05:10:42;0.10;96.30
27978;DHT22;15314;49.248;6.968;2022-12-15T05:12:02;0.10;96.10
27978;DHT22;15314;49.248;6.968;2022-12-15T05:13:21;0.10;96.30
27978;DHT22;15314;49.248;6.968;2022-12-15T05:14:40;0.10;96.30
27978;DHT22;15314;49.248;6.968;2022-12-15T05:16:00;0.10;96.30
27978;DHT22;15314;49.248;6.968;2022-12-15T05:17:19;0.20;96.10
27978;DHT22;15314;49.248;6.968;2022-12-15T05:18:38;0.10;96.10
27978;DHT22;15314;49.248;6.968;2022-12-15T05:19:57;0.10;96.10
27978;DHT22;15314;49.248;6.968;2022-12-15T05:21:17;0.20;96.30
27978;DHT22;15314;49.248;6.968;2022-12-15T05:22:36;0.20;96.10
27978;DHT22;15314;49.248;6.968;2022-12-15T05:23:55;0.10;96.20
27978;DHT22;15314;49.248;6.968;2022-12-15T05:25:15;0.10;96.40
27978;DHT22;15314;49.248;6.968;2022-12-15T05:26:34;0.20;96.10
27978;DHT22;15314;49.248;6.968;2022-12-15T05:27:53;0.20;95.80
27978;DHT22;15314;49.248;6.968;2022-12-15T05:29:13;0.20;96.00
27978;DHT22;15314;49.248;6.968;2022-12-15T05:30:32;0.20;96.10
27978;DHT22;15314;49.248;6.968;2022-12-15T05:31:51;0.10;96.00
27978;DHT22;15314;49.248;6.968;2022-12-15T05:32:54;0.10;95.90
27978;DHT22;15314;49.248;6.968;2022-12-15T05:33:55;0.20;95.90
27978;DHT22;15314;49.248;6.968;2022-12-15T05:34:55;0.20;95.80
27978;DHT22;15314;49.248;6.968;2022-12-15T05:35:56;0.10;95.60
27978;DHT22;15314;49.248;6.968;2022-12-15T05:36:58;0.10;95.70
27978;DHT22;15314;49.248;6.968;2022-12-15T05:37:59;0.10;95.80
27978;DHT22;15314;49.248;6.968;2022-12-15T05:39:00;0.10;95.80
27978;DHT22;15314;49.248;6.968;2022-12-15T05:40:00;0.00;95.70
27978;DHT22;15314;49.248;6.968;2022-12-15T05:41:01;-0.10;95.70
27978;DHT22;15314;49.248;6.968;2022-12-15T05:42:02;0.00;95.70
27978;DHT22;15314;49.248;6.968;2022-12-15T05:43:02;0.00;95.70
27978;DHT22;15314;49.248;6.968;2022-12-15T05:44:03;0.00;95.80
27978;DHT22;15314;49.248;6.968;2022-12-15T05:45:04;0.00;95.90
27978;DHT22;15314;49.248;6.968;2022-12-15T05:46:05;0.00;95.80
27978;DHT22;15314;49.248;6.968;2022-12-15T05:47:05;-0.10;95.70
27978;DHT22;15314;49.248;6.968;2022-12-15T05:48:07;-0.20;95.70
27978;DHT22;15314;49.248;6.968;2022-12-15T05:49:10;-0.20;95.90
27978;DHT22;15314;49.248;6.968;2022-12-15T05:50:11;-0.20;96.00
27978;DHT22;15314;49.248;6.968;2022-12-15T05:51:12;-0.30;95.90
27978;DHT22;15314;49.248;6.968;2022-12-15T05:52:12;-0.30;96.10
27978;DHT22;15314;49.248;6.968;2022-12-15T05:53:13;-0.30;96.20
27978;DHT22;15314;49.248;6.968;2022-12-15T05:54:16;-0.30;96.20
27978;DHT22;15314;49.248;6.968;2022-12-15T05:55:18;-0.40;96.20
27978;DHT22;15314;49.248;6.968;2022-12-15T05:56:18;-0.30;96.20
27978;DHT22;15314;49.248;6.968;2022-12-15T05:57:19;-0.30;96.00
27978;DHT22;15314;49.248;6.968;2022-12-15T05:58:19;-0.40;95.90
27978;DHT22;15314;49.248;6.968;2022-12-15T05:59:20;-0.50;96.00
27978;DHT22;15314;49.248;6.968;2022-12-15T06:00:21;-0.50;96.20
27978;DHT22;15314;49.248;6.968;2022-12-15T06:01:22;-0.50;96.30
27978;DHT22;15314;49.248;6.968;2022-12-15T06:02:23;-0.50;96.30
27978;DHT22;15314;49.248;6.968;2022-12-15T06:03:24;-0.60;96.30
27978;DHT22;15314;49.248;6.968;2022-12-15T06:04:24;-0.60;96.30
27978;DHT22;15314;49.248;6.968;2022-12-15T06:05:25;-0.70;96.30
27978;DHT22;15314;49.248;6.968;2022-12-15T06:06:26;-0.70;96.40
27978;DHT22;15314;49.248;6.968;2022-12-15T06:07:26;-0.70;96.40
27978;DHT22;15314;49.248;6.968;2022-12-15T06:08:32;-0.70;96.30
27978;DHT22;15314;49.248;6.968;2022-12-15T06:09:33;-0.70;96.30
27978;DHT22;15314;49.248;6.968;2022-12-15T06:10:34;-0.70;96.40
27978;DHT22;15314;49.248;6.968;2022-12-15T06:11:34;-0.70;96.40
27978;DHT22;15314;49.248;6.968;2022-12-15T06:12:36;-0.70;96.50
27978;DHT22;15314;49.248;6.968;2022-12-15T06:13:37;-0.80;96.60
27978;DHT22;15314;49.248;6.968;2022-12-15T06:14:37;-0.90;96.70
27978;DHT22;15314;49.248;6.968;2022-12-15T06:15:38;-0.90;96.90
27978;DHT22;15314;49.248;6.968;2022-12-15T06:16:39;-1.00;97.20
27978;DHT22;15314;49.248;6.968;2022-12-15T06:17:39;-1.00;97.00
27978;DHT22;15314;49.248;6.968;2022-12-15T06:18:42;-1.00;96.90
27978;DHT22;15314;49.248;6.968;2022-12-15T06:19:43;-1.00;96.80
27978;DHT22;15314;49.248;6.968;2022-12-15T06:20:43;-1.00;96.90
27978;DHT22;15314;49.248;6.968;2022-12-15T06:21:44;-1.10;96.90
27978;DHT22;15314;49.248;6.968;2022-12-15T06:22:45;-1.00;97.00
27978;DHT22;15314;49.248;6.968;2022-12-15T06:23:46;-1.00;96.80
27978;DHT22;15314;49.248;6.968;2022-12-15T06:24:47;-1.00;96.80
27978;DHT22;15314;49.248;6.968;2022-12-15T06:25:47;-1.00;96.80
27978;DHT22;15314;49.248;6.968;2022-12-15T06:26:48;-1.00;96.70
27978;DHT22;15314;49.248;6.968;2022-12-15T06:27:48;-1.10;96.70
27978;DHT22;15314;49.248;6.968;2022-12-15T06:28:49;-1.10;96.70
27978;DHT22;15314;49.248;6.968;2022-12-15T06:29:50;-1.10;96.60
27978;DHT22;15314;49.248;6.968;2022-12-15T06:30:55;-1.10;96.60
27978;DHT22;15314;49.248;6.968;2022-12-15T06:32:00;-1.10;96.70
27978;DHT22;15314;49.248;6.968;2022-12-15T06:33:00;-1.10;96.70
27978;DHT22;15314;49.248;6.968;2022-12-15T06:34:06;-1.00;96.80
27978;DHT22;15314;49.248;6.968;2022-12-15T06:35:07;-1.20;96.80
27978;DHT22;15314;49.248;6.968;2022-12-15T06:36:10;-1.20;96.90
27978;DHT22;15314;49.248;6.968;2022-12-15T06:37:11;-1.20;97.20
27978;DHT22;15314;49.248;6.968;2022-12-15T06:38:12;-1.20;97.20
27978;DHT22;15314;49.248;6.968;2022-12-15T06:39:13;-1.30;97.10
27978;DHT22;15314;49.248;6.968;2022-12-15T06:40:14;-1.40;97.10
27978;DHT22;15314;49.248;6.968;2022-12-15T06:41:17;-1.40;97.20
27978;DHT22;15314;49.248;6.968;2022-12-15T06:42:18;-1.30;97.30
27978;DHT22;15314;49.248;6.968;2022-12-15T06:43:19;-1.40;97.20
27978;DHT22;15314;49.248;6.968;2022-12-15T06:44:19;-1.40;97.20
27978;DHT22;15314;49.248;6.968;2022-12-15T06:45:20;-1.30;97.20
27978;DHT22;15314;49.248;6.968;2022-12-15T06:46:21;-1.30;97.10
27978;DHT22;15314;49.248;6.968;2022-12-15T06:47:22;-1.40;97.30
27978;DHT22;15314;49.248;6.968;2022-12-15T06:48:23;-1.50;97.40
27978;DHT22;15314;49.248;6.968;2022-12-15T06:49:24;-1.50;97.50
27978;DHT22;15314;49.248;6.968;2022-12-15T06:50:25;-1.50;97.50
27978;DHT22;15314;49.248;6.968;2022-12-15T06:51:26;-1.50;97.50
27978;DHT22;15314;49.248;6.968;2022-12-15T06:52:27;-1.50;97.50
27978;DHT22;15314;49.248;6.968;2022-12-15T06:53:27;-1.50;97.50
27978;DHT22;15314;49.248;6.968;2022-12-15T06:54:28;-1.50;97.50
27978;DHT22;15314;49.248;6.968;2022-12-15T06:55:29;-1.60;97.50
27978;DHT22;15314;49.248;6.968;2022-12-15T06:56:32;-1.60;97.50
27978;DHT22;15314;49.248;6.968;2022-12-15T06:57:35;-1.60;97.60
27978;DHT22;15314;49.248;6.968;2022-12-15T06:58:36;-1.60;97.70
27978;DHT22;15314;49.248;6.968;2022-12-15T06:59:36;-1.60;97.60
27978;DHT22;15314;49.248;6.968;2022-12-15T07:00:38;-1.70;97.50
27978;DHT22;15314;49.248;6.968;2022-12-15T07:01:38;-1.60;97.50
27978;DHT22;15314;49.248;6.968;2022-12-15T07:02:41;-1.60;97.40
27978;DHT22;15314;49.248;6.968;2022-12-15T07:03:42;-1.70;97.50
27978;DHT22;15314;49.248;6.968;2022-12-15T07:04:42;-1.70;97.50
27978;DHT22;15314;49.248;6.968;2022-12-15T07:05:44;-1.70;97.60
27978;DHT22;15314;49.248;6.968;2022-12-15T07:06:44;-1.70;98.00
27978;DHT22;15314;49.248;6.968;2022-12-15T07:07:45;-1.70;98.40
27978;DHT22;15314;49.248;6.968;2022-12-15T07:08:51;-1.70;98.50
27978;DHT22;15314;49.248;6.968;2022-12-15T07:09:52;-1.60;98.60
27978;DHT22;15314;49.248;6.968;2022-12-15T07:10:53;-1.60;98.30
27978;DHT22;15314;49.248;6.968;2022-12-15T07:11:53;-1.70;98.30
27978;DHT22;15314;49.248;6.968;2022-12-15T07:12:57;-1.70;98.10
27978;DHT22;15314;49.248;6.968;2022-12-15T07:13:57;-1.80;97.90
27978;DHT22;15314;49.248;6.968;2022-12-15T07:14:58;-1.90;97.90
27978;DHT22;15314;49.248;6.968;2022-12-15T07:15:59;-1.90;98.10
27978;DHT22;15314;49.248;6.968;2022-12-15T07:17:00;-2.00;98.20
27978;DHT22;15314;49.248;6.968;2022-12-15T07:18:01;-2.00;98.20
27978;DHT22;15314;49.248;6.968;2022-12-15T07:19:02;-2.00;98.40
27978;DHT22;15314;49.248;6.968;2022-12-15T07:20:03;-2.00;98.50
27978;DHT22;15314;49.248;6.968;2022-12-15T07:21:06;-2.00;98.50
27978;DHT22;15314;49.248;6.968;2022-12-15T07:22:07;-2.00;98.50
27978;DHT22;15314;49.248;6.968;2022-12-15T07:23:08;-2.10;98.50
27978;DHT22;15314;49.248;6.968;2022-12-15T07:24:10;-2.10;98.50
27978;DHT22;15314;49.248;6.968;2022-12-15T07:25:11;-2.20;98.70
27978;DHT22;15314;49.248;6.968;2022-12-15T07:26:12;-2.10;98.80
27978;DHT22;15314;49.248;6.968;2022-12-15T07:27:13;-2.20;98.90
27978;DHT22;15314;49.248;6.968;2022-12-15T07:28:13;-2.20;98.90
27978;DHT22;15314;49.248;6.968;2022-12-15T07:29:14;-2.20;99.10
27978;DHT22;15314;49.248;6.968;2022-12-15T07:30:16;-2.20;99.10